Twizzle — 2DKS5 — position and weather

sailwx.info

Track history (hours):
 
Tides and Currents Weather Stations Pressure Air Temp Water Temp Dewpoint Dewpoint Depression Visibility Wind Speed Wind Dir Waves Ship Positions

Twizzle

Last reported at 2016-Sep-25 17:15 UTC. Time now 2016-Sep-26 12:16 UTC.
Position N 43°18' E 006°41'.

Length 58 m; draft 3.8 m.

Type: Sailing vessel. MMSI: 235079813.

Date/timePositionNaut miles runAvg speedWind from/ knotsBaromVisibWave heightAir tempDewpointWater temp
2016-Sep-25 17:15N 43°18' E 006°41'811.8
2016-Sep-25 16:33N 43°23' E 006°50'1111.2
2016-Sep-25 15:33N 43°29' E 007°03'5 4.3
2016-Sep-25 14:30N 43°33' E 007°07'0 0.0
2016-Sep-25 12:30N 43°33' E 007°07'0 0.0
2016-Sep-25 11:30N 43°33' E 007°07'0 0.0
2016-Sep-25 10:30N 43°33' E 007°07'0 0.0
2016-Sep-25 09:30N 43°33' E 007°07'0 0.0
2016-Sep-25 07:30N 43°33' E 007°07'0 0.0
2016-Sep-25 04:24N 43°33' E 007°07'0 0.0
2016-Sep-25 00:24N 43°33' E 007°07'0 0.0
2016-Sep-24 22:12N 43°33' E 007°07'0 0.0
2016-Sep-24 21:24N 43°33' E 007°07'0 0.0
2016-Sep-24 19:30N 43°33' E 007°07'0 0.1
2016-Sep-24 18:30N 43°33' E 007°07'0 0.0
2016-Sep-24 17:30N 43°33' E 007°07'0 0.0
2016-Sep-24 16:24N 43°33' E 007°07'0 0.0
2016-Sep-24 14:30N 43°33' E 007°07'0 0.0
2016-Sep-24 12:30N 43°33' E 007°07'0 0.0
2016-Sep-24 10:30N 43°33' E 007°07'0 0.0
2016-Sep-24 09:30N 43°33' E 007°07'1 0.1
2016-Sep-24 03:28N 43°33' E 007°07'0 0.0
2016-Sep-24 02:28N 43°33' E 007°07'0 0.0
2016-Sep-24 01:28N 43°33' E 007°07'0 0.0
2016-Sep-24 00:28N 43°33' E 007°07'0 0.0
2016-Sep-23 19:28N 43°33' E 007°07'0 0.0
2016-Sep-23 17:28N 43°34' E 007°07'1 0.9
2016-Sep-23 16:32N 43°33' E 007°07'0 0.0
2016-Sep-23 15:32N 43°33' E 007°07'0 0.0
2016-Sep-23 13:32N 43°33' E 007°07'0 0.0
2016-Sep-23 09:33N 43°33' E 007°07'1 0.3
2016-Sep-23 06:33N 43°33' E 007°07'0 0.0
2016-Sep-23 04:33N 43°33' E 007°07'0 0.0
2016-Sep-23 03:33N 43°34' E 007°07'0 0.0
2016-Sep-23 02:33N 43°33' E 007°07'0 0.0
2016-Sep-23 01:33N 43°33' E 007°07'0 0.0
2016-Sep-23 00:33N 43°33' E 007°07'0 0.0
2016-Sep-22 23:33N 43°33' E 007°07'0 0.0
2016-Sep-22 20:33N 43°33' E 007°07'1 0.2
2016-Sep-22 12:33N 43°32' E 007°08'1 0.2
2016-Sep-22 04:32N 43°33' E 007°07'0 0.0
2016-Sep-22 03:32N 43°33' E 007°07'0 0.0
2016-Sep-22 00:32N 43°33' E 007°07'0 0.0
2016-Sep-21 23:32N 43°33' E 007°07'0 0.0
2016-Sep-21 22:32N 43°33' E 007°07'0 0.0
2016-Sep-21 19:32N 43°33' E 007°07'0 0.0
2016-Sep-21 16:32N 43°33' E 007°07'4 0.6
2016-Sep-21 09:31N 43°32' E 007°01'0 0.0
2016-Sep-21 08:31N 43°32' E 007°01'0 0.0
2016-Sep-21 03:31N 43°32' E 007°01'0 0.0
2016-Sep-21 02:25N 43°32' E 007°01'0 0.0
2016-Sep-20 17:31N 43°32' E 007°01'1 0.3
2016-Sep-20 14:33N 43°31' E 007°01'7 7.2
2016-Sep-20 13:33N 43°25' E 006°57'  
2016-Sep-18 02:16N 43°33' E 007°01'0 0.0
2016-Sep-18 01:28N 43°33' E 007°01'0 0.0
2016-Sep-18 00:16N 43°33' E 007°01'0 0.0
2016-Sep-17 00:13N 43°33' E 007°01'0 0.0
2016-Sep-16 15:22N 43°33' E 007°01'0 0.0
2016-Sep-16 12:28N 43°33' E 007°01'0 0.0
2016-Sep-16 09:28N 43°33' E 007°01'0 0.0
2016-Sep-16 07:31N 43°33' E 007°01'0 0.0
2016-Sep-16 03:31N 43°33' E 007°01'0 0.0
2016-Sep-16 02:22N 43°33' E 007°01'0 0.0
2016-Sep-16 00:25N 43°33' E 007°01'0 0.0
2016-Sep-15 22:28N 43°33' E 007°01'0 0.0
2016-Sep-15 21:28N 43°33' E 007°01'0 0.0
2016-Sep-15 20:28N 43°33' E 007°01'0 0.0
2016-Sep-15 18:31N 43°33' E 007°01'  
Track history (hours):
 
Tides and Currents Weather Stations Pressure Air Temp Water Temp Dewpoint Dewpoint Depression Visibility Wind Speed Wind Dir Waves Ship Positions

Twizzle

Last reported at 2016-Sep-25 17:15 UTC. Time now 2016-Sep-26 12:16 UTC.
Position N 43°18' E 006°41'.

Length 58 m; draft 3.8 m.

Type: Sailing vessel. MMSI: 235079813.

Date/timePositionNaut miles runAvg speedWind from/ knotsBaromVisibWave heightAir tempDewpointWater temp
2016-Sep-25 17:15N 43°18' E 006°41'811.8
2016-Sep-25 16:33N 43°23' E 006°50'1111.2
2016-Sep-25 15:33N 43°29' E 007°03'5 4.3
2016-Sep-25 14:30N 43°33' E 007°07'0 0.0
2016-Sep-25 12:30N 43°33' E 007°07'0 0.0
2016-Sep-25 11:30N 43°33' E 007°07'0 0.0
2016-Sep-25 10:30N 43°33' E 007°07'0 0.0
2016-Sep-25 09:30N 43°33' E 007°07'0 0.0
2016-Sep-25 07:30N 43°33' E 007°07'0 0.0
2016-Sep-25 04:24N 43°33' E 007°07'0 0.0
2016-Sep-25 00:24N 43°33' E 007°07'0 0.0
2016-Sep-24 22:12N 43°33' E 007°07'0 0.0
2016-Sep-24 21:24N 43°33' E 007°07'0 0.0
2016-Sep-24 19:30N 43°33' E 007°07'0 0.1
2016-Sep-24 18:30N 43°33' E 007°07'0 0.0
2016-Sep-24 17:30N 43°33' E 007°07'0 0.0
2016-Sep-24 16:24N 43°33' E 007°07'0 0.0
2016-Sep-24 14:30N 43°33' E 007°07'0 0.0
2016-Sep-24 12:30N 43°33' E 007°07'0 0.0
2016-Sep-24 10:30N 43°33' E 007°07'0 0.0
2016-Sep-24 09:30N 43°33' E 007°07'1 0.1
2016-Sep-24 03:28N 43°33' E 007°07'0 0.0
2016-Sep-24 02:28N 43°33' E 007°07'0 0.0
2016-Sep-24 01:28N 43°33' E 007°07'0 0.0
2016-Sep-24 00:28N 43°33' E 007°07'0 0.0
2016-Sep-23 19:28N 43°33' E 007°07'0 0.0
2016-Sep-23 17:28N 43°34' E 007°07'1 0.9
2016-Sep-23 16:32N 43°33' E 007°07'0 0.0
2016-Sep-23 15:32N 43°33' E 007°07'0 0.0
2016-Sep-23 13:32N 43°33' E 007°07'0 0.0
2016-Sep-23 09:33N 43°33' E 007°07'1 0.3
2016-Sep-23 06:33N 43°33' E 007°07'0 0.0
2016-Sep-23 04:33N 43°33' E 007°07'0 0.0
2016-Sep-23 03:33N 43°34' E 007°07'0 0.0
2016-Sep-23 02:33N 43°33' E 007°07'0 0.0
2016-Sep-23 01:33N 43°33' E 007°07'0 0.0
2016-Sep-23 00:33N 43°33' E 007°07'0 0.0
2016-Sep-22 23:33N 43°33' E 007°07'0 0.0
2016-Sep-22 20:33N 43°33' E 007°07'1 0.2
2016-Sep-22 12:33N 43°32' E 007°08'1 0.2
2016-Sep-22 04:32N 43°33' E 007°07'0 0.0
2016-Sep-22 03:32N 43°33' E 007°07'0 0.0
2016-Sep-22 00:32N 43°33' E 007°07'0 0.0
2016-Sep-21 23:32N 43°33' E 007°07'0 0.0
2016-Sep-21 22:32N 43°33' E 007°07'0 0.0
2016-Sep-21 19:32N 43°33' E 007°07'0 0.0
2016-Sep-21 16:32N 43°33' E 007°07'4 0.6
2016-Sep-21 09:31N 43°32' E 007°01'0 0.0
2016-Sep-21 08:31N 43°32' E 007°01'0 0.0
2016-Sep-21 03:31N 43°32' E 007°01'0 0.0
2016-Sep-21 02:25N 43°32' E 007°01'0 0.0
2016-Sep-20 17:31N 43°32' E 007°01'1 0.3
2016-Sep-20 14:33N 43°31' E 007°01'7 7.2
2016-Sep-20 13:33N 43°25' E 006°57'  
2016-Sep-18 02:16N 43°33' E 007°01'0 0.0
2016-Sep-18 01:28N 43°33' E 007°01'0 0.0
2016-Sep-18 00:16N 43°33' E 007°01'0 0.0
2016-Sep-17 00:13N 43°33' E 007°01'0 0.0
2016-Sep-16 15:22N 43°33' E 007°01'0 0.0
2016-Sep-16 12:28N 43°33' E 007°01'0 0.0
2016-Sep-16 09:28N 43°33' E 007°01'0 0.0
2016-Sep-16 07:31N 43°33' E 007°01'0 0.0
2016-Sep-16 03:31N 43°33' E 007°01'0 0.0
2016-Sep-16 02:22N 43°33' E 007°01'0 0.0
2016-Sep-16 00:25N 43°33' E 007°01'0 0.0
2016-Sep-15 22:28N 43°33' E 007°01'0 0.0
2016-Sep-15 21:28N 43°33' E 007°01'0 0.0
2016-Sep-15 20:28N 43°33' E 007°01'0 0.0
2016-Sep-15 18:31N 43°33' E 007°01'  

Dump ship's entire track history